High Point, Kentucky
Current Conditions -  °F | °C
As of 4:53 PM on Tuesday 21 Oct 2014 (Local Time) from KPAH Reporting Station
Clear Clear  
Wind Chill: 69°   Ceiling: Unl
Heat Index: 69°   Visibility: 10mi
Dew Point: 45°   Wind: 10mph
Humidity: 42%   Direction: 10°N
Pressure: 30.06"   Gusts: NA
Location:  37.0919°N, 88.7716°W
Report Text: KPAH 212153Z 01009KT 10SM CLR 21/07 A3006 RMK AO2 SLP179 T02060072
Loading
Personal Weather Stations






























Interactive Weather Map
Tropical Storm Tracking
New forecast layout! Learn more

10-Day Weather Forecast

Advertisements
Track Severe Weather on mobile